Time;durP1;ratioP1;P1;durP2;ratioP2;P2;SDS_P1;SDS_P2;PMS_P1;PMS_P2;Temp;Humidity;BMP_temperature;BMP_pressure;BME280_temperature;BME280_humidity;BME280_pressure;Samples;Min_cycle;Max_cycle;Signal;HPM_P1;HPM_P2
2023/02/11 00:00:17;;;;;;;45.72;22.67;;;;;;;-2.72;85.14;98165.06;4988761;28;20517;-74
2023/02/11 00:02:43;;;;;;;50.05;22.63;;;;;;;-2.74;84.95;98167.13;4990182;28;20046;-73
2023/02/11 00:05:10;;;;;;;47.88;22.38;;;;;;;-2.73;84.98;98168.75;4989918;28;20050;-72
2023/02/11 00:07:37;;;;;;;45.00;22.52;;;;;;;-2.72;84.88;98173.06;4990224;28;20058;-72
2023/02/11 00:10:06;;;;;;;46.08;22.58;;;;;;;-2.72;84.91;98175.75;4989755;28;20053;-73
2023/02/11 00:12:33;;;;;;;47.22;21.73;;;;;;;-2.78;84.82;98158.66;4989847;28;20134;-73
2023/02/11 00:15:01;;;;;;;46.33;21.73;;;;;;;-2.84;84.92;98155.94;4990246;28;20426;-75
2023/02/11 00:17:27;;;;;;;44.38;21.25;;;;;;;-2.83;84.99;98153.06;4989356;28;20049;-73
2023/02/11 00:19:54;;;;;;;43.17;21.15;;;;;;;-2.83;85.07;98160.25;4990030;28;20051;-72
2023/02/11 00:22:21;;;;;;;48.40;22.80;;;;;;;-2.90;85.12;98163.66;4989455;28;20054;-72
2023/02/11 00:24:47;;;;;;;49.20;22.73;;;;;;;-2.93;85.27;98157.88;4990034;28;20043;-72
2023/02/11 00:27:14;;;;;;;44.83;21.88;;;;;;;-2.87;85.22;98157.16;4989413;28;20469;-74
2023/02/11 00:29:40;;;;;;;41.55;19.83;;;;;;;-2.82;85.28;98159.22;4971850;28;20711;-73
2023/02/11 00:32:10;;;;;;;43.75;20.90;;;;;;;-2.82;85.39;98159.22;4969653;28;20054;-73
2023/02/11 00:34:37;;;;;;;43.20;20.83;;;;;;;-2.80;85.47;98157.22;4970620;28;20047;-72
2023/02/11 00:37:04;;;;;;;41.05;20.35;;;;;;;-2.77;85.39;98151.47;4970117;28;20066;-73
2023/02/11 00:39:31;;;;;;;39.03;19.77;;;;;;;-2.76;85.04;98153.16;4970753;28;20051;-74
2023/02/11 00:41:57;;;;;;;42.10;20.67;;;;;;;-2.76;85.12;98153.16;4970532;28;20055;-73
2023/02/11 00:44:24;;;;;;;38.35;18.55;;;;;;;-2.80;84.98;98142.03;4985255;28;20046;-72
2023/02/11 00:46:51;;;;;;;40.67;19.98;;;;;;;-2.78;84.90;98149.84;4989934;28;20534;-72
2023/02/11 00:49:18;;;;;;;38.47;20.08;;;;;;;-2.79;84.40;98143.69;4989182;28;20046;-72
2023/02/11 00:51:45;;;;;;;40.28;18.95;;;;;;;-2.81;84.01;98147.56;4989785;28;20050;-72
2023/02/11 00:54:11;;;;;;;38.17;18.65;;;;;;;-2.84;83.89;98142.59;4990399;28;20046;-72
2023/02/11 00:56:38;;;;;;;35.95;17.38;;;;;;;-2.90;84.78;98142.34;4993054;28;20065;-73
2023/02/11 00:59:04;;;;;;;36.75;17.73;;;;;;;-2.99;86.07;98135.47;4992568;28;20596;-72
2023/02/11 01:01:31;;;;;;;38.28;17.55;;;;;;;-2.96;85.81;98137.75;4992716;28;20061;-72
2023/02/11 01:03:57;;;;;;;33.28;16.80;;;;;;;-2.93;86.21;98132.03;4993070;28;20042;-72
2023/02/11 01:06:25;;;;;;;33.53;17.05;;;;;;;-2.84;85.36;98139.94;4992853;28;20054;-72
2023/02/11 01:08:52;;;;;;;36.42;16.02;;;;;;;-2.75;84.93;98136.13;4993226;28;20042;-72
2023/02/11 01:11:20;;;;;;;30.80;15.88;;;;;;;-2.74;84.78;98138.59;4992315;28;20054;-72
2023/02/11 01:13:48;;;;;;;33.92;16.40;;;;;;;-2.70;84.86;98141.72;4992399;28;20617;-72
2023/02/11 01:16:15;;;;;;;32.63;16.52;;;;;;;-2.68;84.59;98134.34;4992519;28;20046;-72
2023/02/11 01:18:43;;;;;;;31.75;15.82;;;;;;;-2.66;84.59;98132.34;4992788;28;20058;-72
2023/02/11 01:21:09;;;;;;;32.78;16.45;;;;;;;-2.67;84.64;98130.66;4992326;28;20047;-72
2023/02/11 01:23:37;;;;;;;31.85;15.40;;;;;;;-2.65;84.26;98133.97;4992144;28;20050;-72
2023/02/11 01:26:04;;;;;;;35.15;17.55;;;;;;;-2.69;83.74;98127.38;4992394;28;20050;-73
2023/02/11 01:28:31;;;;;;;31.60;15.20;;;;;;;-2.69;83.85;98122.03;4992744;28;20073;-72
2023/02/11 01:30:57;;;;;;;30.88;15.23;;;;;;;-2.67;83.77;98136.00;4985574;28;20078;-72
2023/02/11 01:33:24;;;;;;;33.55;15.93;;;;;;;-2.71;83.61;98134.75;4972286;28;20047;-73
2023/02/11 01:35:50;;;;;;;31.92;15.25;;;;;;;-2.75;83.21;98138.81;4973226;28;20050;-72
2023/02/11 01:38:20;;;;;;;30.63;15.27;;;;;;;-2.81;82.92;98134.22;4972874;28;20507;-72
2023/02/11 01:40:50;;;;;;;33.10;15.95;;;;;;;-2.82;83.03;98132.56;4972944;28;20054;-73
2023/02/11 01:43:17;;;;;;;39.55;17.58;;;;;;;-2.83;83.06;98136.25;4972401;28;20050;-72
2023/02/11 01:46:02;;;;;;;31.52;14.82;;;;;;;-2.84;82.74;98137.25;4973276;28;20113;-72
2023/02/11 01:48:34;;;;;;;31.90;15.55;;;;;;;-2.89;82.54;98135.97;4972913;28;20050;-73
2023/02/11 01:51:06;;;;;;;30.27;15.10;;;;;;;-2.96;82.56;98119.09;4972969;28;20047;-74
2023/02/11 01:59:11;;;;;;;32.25;14.50;;;;;;;-3.09;82.96;98124.28;4991801;28;20046;-73
2023/02/11 02:01:40;;;;;;;28.13;14.98;;;;;;;-3.12;83.00;98126.50;4991801;28;20058;-73
2023/02/11 02:04:10;;;;;;;29.75;14.73;;;;;;;-3.14;83.01;98129.34;4991686;28;20384;-73
2023/02/11 02:06:43;;;;;;;28.73;14.68;;;;;;;-3.23;83.03;98119.84;4991075;28;20054;-72
2023/02/11 02:09:17;;;;;;;30.83;15.18;;;;;;;-3.24;83.24;98118.16;4991316;28;20113;-72
2023/02/11 02:11:44;;;;;;;30.88;14.75;;;;;;;-3.24;83.43;98118.16;4992045;28;20057;-74
2023/02/11 02:14:11;;;;;;;35.85;15.75;;;;;;;-3.34;83.41;98112.28;4991513;28;20261;-73
2023/02/11 02:16:38;;;;;;;27.55;14.70;;;;;;;-3.38;83.79;98116.38;4991786;28;20054;-74
2023/02/11 02:19:30;;;;;;;26.73;14.60;;;;;;;-3.36;83.89;98109.81;4991247;28;20057;-74
2023/02/11 02:22:22;;;;;;;26.83;13.63;;;;;;;-3.37;83.87;98110.84;4991724;28;20395;-73
2023/02/11 02:25:02;;;;;;;31.15;14.40;;;;;;;-3.35;84.32;98092.00;4981453;28;20042;-74
2023/02/11 02:27:49;;;;;;;28.73;13.45;;;;;;;-3.26;84.98;98088.22;4991574;28;20054;-73
2023/02/11 02:30:48;;;;;;;33.20;14.23;;;;;;;-3.21;85.35;98080.50;4990660;28;20058;-74
2023/02/11 02:33:24;;;;;;;29.67;13.52;;;;;;;-3.12;85.47;98065.22;4990902;28;20054;-73
2023/02/11 02:36:02;;;;;;;28.80;14.07;;;;;;;-3.17;85.88;98065.78;4991612;28;20046;-74
2023/02/11 02:38:33;;;;;;;28.02;13.35;;;;;;;-3.13;85.63;98060.88;4991213;28;20520;-73
2023/02/11 02:41:04;;;;;;;24.63;12.63;;;;;;;-3.04;84.81;98054.41;4991479;28;20057;-73
2023/02/11 02:43:31;;;;;;;25.70;12.77;;;;;;;-3.01;84.43;98062.88;4991098;28;20050;-73
2023/02/11 02:46:13;;;;;;;25.80;13.52;;;;;;;-2.95;84.20;98054.13;4991419;28;20050;-73
2023/02/11 02:48:41;;;;;;;24.13;11.88;;;;;;;-2.96;83.58;98051.66;4991096;28;20544;-74
2023/02/11 02:51:19;;;;;;;26.20;12.57;;;;;;;-2.98;83.94;98043.81;4990125;28;20047;-74
2023/02/11 02:53:59;;;;;;;22.88;11.20;;;;;;;-2.89;83.27;98033.88;4990654;28;20442;-73
2023/02/11 02:56:35;;;;;;;24.90;12.50;;;;;;;-2.85;83.07;98034.31;4989470;28;20050;-73
2023/02/11 02:59:18;;;;;;;27.38;13.13;;;;;;;-2.90;82.82;98041.03;4990927;28;20046;-73
2023/02/11 03:01:55;;;;;;;24.40;11.73;;;;;;;-2.82;83.06;98041.91;4990274;28;20057;-74
2023/02/11 03:04:30;;;;;;;27.50;11.98;;;;;;;-2.91;83.03;98043.91;4990641;28;20536;-73
2023/02/11 03:07:09;;;;;;;27.73;12.98;;;;;;;-2.82;82.99;98044.56;4990950;28;20061;-75
2023/02/11 03:09:42;;;;;;;24.95;12.10;;;;;;;-2.86;82.74;98038.81;4990814;28;20053;-73
2023/02/11 03:12:11;;;;;;;27.27;12.43;;;;;;;-2.83;82.48;98024.28;4990254;28;20050;-74
2023/02/11 03:14:40;;;;;;;24.55;12.10;;;;;;;-2.78;82.34;98029.84;4990881;28;20046;-73
2023/02/11 03:17:08;;;;;;;22.48;11.60;;;;;;;-2.75;82.19;98032.16;4990164;28;20054;-73
2023/02/11 03:19:39;;;;;;;24.63;12.20;;;;;;;-2.75;82.48;98032.16;4990385;28;20061;-73
2023/02/11 03:22:11;;;;;;;26.13;11.43;;;;;;;-2.70;82.32;98024.41;4989955;28;20049;-73
2023/02/11 03:24:40;;;;;;;27.33;12.10;;;;;;;-2.66;82.09;98041.66;4990577;28;20054;-73
2023/02/11 03:27:15;;;;;;;24.75;12.30;;;;;;;-2.68;81.98;98039.19;4990284;28;20057;-74
2023/02/11 03:29:50;;;;;;;24.55;11.85;;;;;;;-2.73;81.63;98046.09;4985372;28;20050;-74
2023/02/11 03:32:22;;;;;;;24.55;12.18;;;;;;;-2.75;81.65;98037.47;4970531;28;20467;-71
2023/02/11 03:34:56;;;;;;;25.75;11.95;;;;;;;-2.79;81.09;98030.88;4971017;28;20073;-73
2023/02/11 03:37:27;;;;;;;25.42;12.05;;;;;;;-2.78;81.13;98037.84;4969299;28;20150;-73
2023/02/11 03:39:59;;;;;;;22.17;11.35;;;;;;;-2.77;81.18;98034.16;4972108;28;20051;-73
2023/02/11 03:42:31;;;;;;;24.88;11.63;;;;;;;-2.76;81.57;98035.84;4971636;28;20039;-73
2023/02/11 03:45:03;;;;;;;25.55;13.02;;;;;;;-2.83;82.19;98029.59;4972322;28;20659;-73
2023/02/11 03:47:34;;;;;;;25.30;11.50;;;;;;;-2.76;82.08;98025.19;4971916;28;20561;-74
2023/02/11 03:50:06;;;;;;;22.52;11.27;;;;;;;-2.75;82.28;98027.63;4971846;28;20054;-75
2023/02/11 03:52:34;;;;;;;21.80;11.15;;;;;;;-2.76;82.31;98026.00;4975572;28;20681;-74
2023/02/11 03:55:05;;;;;;;24.52;11.95;;;;;;;-2.74;82.08;98039.13;4991234;28;20050;-74
2023/02/11 03:57:33;;;;;;;28.15;12.52;;;;;;;-2.78;82.08;98032.53;4991249;28;20057;-74
2023/02/11 04:00:00;;;;;;;22.52;11.18;;;;;;;-2.74;81.85;98039.13;4991503;28;20068;-75
2023/02/11 04:02:29;;;;;;;23.48;11.32;;;;;;;-2.71;81.82;98038.75;4990682;28;20046;-75
2023/02/11 04:04:55;;;;;;;25.90;12.25;;;;;;;-2.83;82.13;98053.59;4991384;28;20046;-73
2023/02/11 04:07:24;;;;;;;22.83;11.02;;;;;;;-2.64;81.45;98050.28;4990942;28;20490;-75
2023/02/11 04:09:51;;;;;;;23.60;11.20;;;;;;;-2.54;80.85;98049.97;4991381;28;20043;-74
2023/02/11 04:12:17;;;;;;;26.75;11.25;;;;;;;-2.47;80.64;98059.66;4990983;28;20560;-76
2023/02/11 04:14:44;;;;;;;23.77;10.63;;;;;;;-2.42;80.52;98054.56;4991302;28;20529;-74
2023/02/11 04:17:10;;;;;;;21.92;11.32;;;;;;;-2.48;80.36;98055.34;4990991;28;20055;-74
2023/02/11 04:19:37;;;;;;;21.92;11.07;;;;;;;-2.45;80.06;98048.81;4977924;28;20047;-74
2023/02/11 04:22:04;;;;;;;20.67;10.85;;;;;;;-2.42;80.12;98054.56;4970662;28;20054;-75
2023/02/11 04:24:32;;;;;;;21.75;10.85;;;;;;;-2.39;80.12;98056.84;4985789;28;20046;-72
2023/02/11 04:26:58;;;;;;;20.05;10.70;;;;;;;-2.36;80.00;98061.78;4990654;28;20535;-75
2023/02/11 04:29:25;;;;;;;18.25;9.43;;;;;;;-2.51;79.49;98060.22;4991691;28;20043;-75
2023/02/11 04:31:52;;;;;;;18.88;8.88;;;;;;;-2.51;79.43;98074.38;4993685;28;20419;-73
2023/02/11 04:34:18;;;;;;;18.85;8.93;;;;;;;-2.39;78.82;98085.38;4993072;28;20050;-73
2023/02/11 04:36:45;;;;;;;17.98;9.07;;;;;;;-2.38;78.29;98087.03;4994456;28;20097;-72
2023/02/11 04:39:11;;;;;;;18.15;9.25;;;;;;;-2.42;78.73;98096.44;4993984;28;20050;-73
2023/02/11 04:41:39;;;;;;;16.13;8.60;;;;;;;-2.49;78.62;98096.38;4994289;28;20047;-72
2023/02/11 04:44:05;;;;;;;17.05;9.48;;;;;;;-2.54;78.67;98090.78;4993952;28;20061;-72
2023/02/11 04:46:32;;;;;;;18.42;8.95;;;;;;;-2.58;79.02;98081.53;4994290;28;20057;-73
2023/02/11 04:48:58;;;;;;;17.73;8.32;;;;;;;-2.59;79.28;98079.88;4994183;28;20514;-74
2023/02/11 04:51:25;;;;;;;18.98;8.77;;;;;;;-2.60;79.20;98080.06;4993076;28;20046;-73
2023/02/11 04:53:52;;;;;;;18.38;9.38;;;;;;;-2.66;79.67;98068.34;4992999;28;20046;-73
2023/02/11 04:56:18;;;;;;;17.80;9.35;;;;;;;-2.58;79.51;98065.53;4992791;28;20529;-76
2023/02/11 04:58:46;;;;;;;21.88;9.70;;;;;;;-2.65;80.34;98075.31;4993323;28;20054;-73
2023/02/11 05:01:14;;;;;;;15.65;8.68;;;;;;;-2.48;79.75;98078.53;4992998;28;20518;-75
2023/02/11 05:03:42;;;;;;;17.98;9.75;;;;;;;-2.58;79.96;98070.03;4993296;28;20591;-72
2023/02/11 05:06:10;;;;;;;19.85;9.75;;;;;;;-2.80;81.06;98067.38;4992820;28;20418;-74
2023/02/11 05:08:36;;;;;;;21.77;11.10;;;;;;;-2.71;80.82;98070.75;4993259;28;20057;-74
2023/02/11 05:11:03;;;;;;;21.45;10.73;;;;;;;-2.68;80.78;98059.69;4991989;28;20049;-74
2023/02/11 05:13:30;;;;;;;20.40;9.98;;;;;;;-2.46;79.97;98063.16;4992967;28;20058;-75
2023/02/11 05:15:58;;;;;;;17.73;8.93;;;;;;;-2.45;79.37;98057.63;4992621;28;20046;-74
2023/02/11 05:18:24;;;;;;;20.00;9.27;;;;;;;-2.55;79.85;98064.31;4992394;28;20495;-74
2023/02/11 05:20:51;;;;;;;20.45;9.95;;;;;;;-2.67;79.92;98066.66;4992931;28;20050;-74
2023/02/11 05:23:17;;;;;;;21.13;9.73;;;;;;;-2.76;80.37;98055.31;4991926;28;20104;-73
2023/02/11 05:25:44;;;;;;;19.17;9.60;;;;;;;-2.90;81.12;98051.69;4992608;28;20054;-75
2023/02/11 05:28:10;;;;;;;19.08;9.63;;;;;;;-3.03;81.90;98046.22;4992391;28;20502;-75
2023/02/11 05:30:37;;;;;;;17.35;8.68;;;;;;;-2.85;82.17;98036.97;4992473;28;20049;-74
2023/02/11 05:33:04;;;;;;;19.45;8.50;;;;;;;-2.60;81.19;98032.06;4992170;28;20054;-73
2023/02/11 05:35:31;;;;;;;19.63;8.77;;;;;;;-2.45;80.48;98028.28;4992732;28;20061;-74
2023/02/11 05:37:58;;;;;;;17.15;7.97;;;;;;;-2.34;79.76;98034.13;4992607;28;20046;-74
2023/02/11 05:40:24;;;;;;;15.65;8.02;;;;;;;-2.23;79.20;98025.56;4990895;28;20414;-74
2023/02/11 05:42:51;;;;;;;17.73;8.85;;;;;;;-2.25;79.31;98022.25;4992618;28;20046;-75
2023/02/11 05:45:17;;;;;;;16.48;8.35;;;;;;;-2.14;78.83;98029.69;4992111;28;20065;-75
2023/02/11 05:47:44;;;;;;;18.40;8.15;;;;;;;-2.21;78.99;98028.84;4992631;28;20058;-74
2023/02/11 05:50:11;;;;;;;16.70;8.13;;;;;;;-2.44;79.52;98035.28;4992018;28;20046;-76
2023/02/11 05:52:38;;;;;;;16.92;8.30;;;;;;;-2.45;79.98;98032.81;4992248;28;20046;-73
2023/02/11 05:55:05;;;;;;;16.92;8.00;;;;;;;-2.39;80.02;98030.19;4991572;28;20054;-75
2023/02/11 05:57:32;;;;;;;17.67;8.07;;;;;;;-2.40;79.77;98033.88;4992463;28;20061;-75
2023/02/11 05:59:58;;;;;;;17.10;8.38;;;;;;;-2.38;79.64;98031.81;4992577;28;20077;-76
2023/02/11 06:02:25;;;;;;;16.88;8.18;;;;;;;-2.38;79.47;98023.00;4991778;28;20050;-74
2023/02/11 06:04:51;;;;;;;17.70;8.63;;;;;;;-2.34;79.38;98018.09;4992515;28;20042;-74
2023/02/11 06:07:19;;;;;;;16.88;9.02;;;;;;;-2.32;79.25;98037.41;4991518;28;20553;-76
2023/02/11 06:09:45;;;;;;;19.30;8.25;;;;;;;-2.29;78.62;98043.19;4991962;28;20050;-74
2023/02/11 06:12:12;;;;;;;18.05;8.13;;;;;;;-2.19;78.47;98049.00;4991181;28;20050;-73
2023/02/11 06:14:38;;;;;;;13.55;7.00;;;;;;;-2.12;78.54;98038.34;4991855;28;20047;-74
2023/02/11 06:17:05;;;;;;;16.48;7.47;;;;;;;-1.98;78.50;98036.59;4991472;28;20046;-75
2023/02/11 06:19:32;;;;;;;17.80;7.72;;;;;;;-1.84;78.00;98039.13;4992216;28;20066;-74
2023/02/11 06:21:58;;;;;;;17.90;8.32;;;;;;;-1.93;78.37;98045.66;4991567;28;20050;-74
2023/02/11 06:24:26;;;;;;;17.20;8.10;;;;;;;-1.99;77.99;98037.59;4991106;28;20108;-74
2023/02/11 06:26:52;;;;;;;16.17;8.30;;;;;;;-2.12;78.58;98043.69;4991669;28;20042;-76
2023/02/11 06:29:19;;;;;;;16.20;8.63;;;;;;;-2.11;78.27;98037.34;4991298;28;20057;-74
2023/02/11 06:31:45;;;;;;;17.95;8.38;;;;;;;-1.96;77.82;98037.22;4991559;28;20046;-74
2023/02/11 06:34:12;;;;;;;15.02;8.15;;;;;;;-2.08;78.57;98034.28;4991065;28;20109;-75
2023/02/11 06:36:39;;;;;;;15.02;8.57;;;;;;;-2.12;79.25;98033.03;4991584;28;20046;-74
2023/02/11 06:39:06;;;;;;;14.75;7.65;;;;;;;-2.22;79.14;98028.03;4990968;28;20050;-75
2023/02/11 06:41:34;;;;;;;15.40;8.32;;;;;;;-2.20;79.33;98030.50;4991274;28;20710;-76
2023/02/11 06:44:01;;;;;;;15.80;8.48;;;;;;;-2.19;79.03;98043.66;4991151;28;20054;-74
2023/02/11 06:46:27;;;;;;;15.40;7.68;;;;;;;-2.06;78.90;98042.91;4990960;28;20046;-75
2023/02/11 06:48:54;;;;;;;14.68;7.55;;;;;;;-1.93;78.93;98043.00;4991184;28;20047;-73
2023/02/11 06:51:20;;;;;;;16.95;7.80;;;;;;;-2.04;79.67;98035.50;4990233;28;20050;-74
2023/02/11 06:53:47;;;;;;;16.65;7.90;;;;;;;-2.11;80.08;98040.00;4990860;28;20395;-75
2023/02/11 06:56:15;;;;;;;15.85;7.95;;;;;;;-2.10;80.23;98046.97;4990329;28;20473;-76
2023/02/11 06:58:43;;;;;;;18.63;8.80;;;;;;;-2.00;80.48;98047.44;4991226;28;20467;-75
2023/02/11 07:01:12;;;;;;;19.55;8.35;;;;;;;-2.00;80.29;98039.44;4990685;28;20046;-76
2023/02/11 07:03:42;;;;;;;16.88;7.80;;;;;;;-1.95;79.89;98037.00;4991049;28;20066;-76
2023/02/11 07:06:12;;;;;;;17.10;8.55;;;;;;;-1.91;79.37;98040.94;4990441;28;20141;-75
2023/02/11 07:08:41;;;;;;;19.77;8.30;;;;;;;-1.91;79.30;98030.25;4990639;28;20043;-76
2023/02/11 07:11:10;;;;;;;16.77;8.35;;;;;;;-1.79;79.11;98024.34;4990303;28;20050;-75
2023/02/11 07:13:37;;;;;;;18.67;9.13;;;;;;;-1.76;77.96;98021.31;4990738;28;20088;-76
2023/02/11 07:16:06;;;;;;;19.80;8.60;;;;;;;-1.67;78.34;98036.97;4990348;28;20130;-74
2023/02/11 07:18:32;;;;;;;17.25;7.90;;;;;;;-1.61;78.21;98035.34;4990730;28;20050;-74
2023/02/11 07:20:59;;;;;;;21.02;8.55;;;;;;;-1.55;77.60;98028.38;4990265;28;20050;-74
2023/02/11 07:23:25;;;;;;;16.65;8.25;;;;;;;-1.41;77.49;98020.22;4972330;28;20042;-75
2023/02/11 07:25:52;;;;;;;16.35;9.00;;;;;;;-1.44;76.97;98030.47;4990387;28;20054;-77
2023/02/11 07:28:18;;;;;;;16.27;8.77;;;;;;;-1.36;76.71;98049.81;4989611;28;20053;-74
2023/02/11 07:30:45;;;;;;;14.45;7.65;;;;;;;-1.22;77.29;98060.53;4990528;28;20042;-75
2023/02/11 07:33:13;;;;;;;18.85;7.93;;;;;;;-1.10;77.15;98043.75;4990279;28;20050;-75
2023/02/11 07:35:40;;;;;;;19.60;9.02;;;;;;;-1.13;76.89;98043.31;4990712;28;20129;-73
2023/02/11 07:38:06;;;;;;;16.45;8.48;;;;;;;-1.15;77.21;98031.97;4989813;28;20047;-73
2023/02/11 07:40:33;;;;;;;16.17;8.30;;;;;;;-0.99;77.02;98022.75;4990454;28;20054;-72
2023/02/11 07:43:00;;;;;;;21.95;9.55;;;;;;;-1.09;76.05;97996.44;4990243;28;20053;-74
2023/02/11 07:45:27;;;;;;;20.65;8.80;;;;;;;-0.97;75.96;98002.81;4990207;28;20039;-72
2023/02/11 07:47:53;;;;;;;17.48;7.97;;;;;;;-0.95;75.34;98006.09;4990585;28;20042;-73
2023/02/11 07:50:21;;;;;;;16.63;8.60;;;;;;;-0.85;75.59;98014.53;4989845;28;20046;-73
2023/02/11 07:52:48;;;;;;;15.15;8.77;;;;;;;-0.76;75.39;98017.03;4989816;28;20073;-73
2023/02/11 07:55:14;;;;;;;16.35;8.50;;;;;;;-0.72;75.18;98029.78;4989668;28;20043;-73
2023/02/11 07:57:41;;;;;;;15.15;8.27;;;;;;;-0.72;74.69;98029.78;4990362;28;20057;-73
2023/02/11 08:00:08;;;;;;;14.55;8.23;;;;;;;-0.58;74.93;98035.97;4989961;28;20046;-74
2023/02/11 08:02:35;;;;;;;22.20;9.07;;;;;;;-0.54;74.46;98032.66;4990320;28;20046;-73
2023/02/11 08:05:01;;;;;;;17.58;8.70;;;;;;;-0.45;74.00;98033.28;4993022;28;20054;-74
2023/02/11 08:07:29;;;;;;;19.80;8.75;;;;;;;-0.48;74.10;98020.31;4994317;28;20054;-74
2023/02/11 08:09:56;;;;;;;16.02;8.65;;;;;;;-0.49;74.18;98018.66;4994281;28;20054;-73
2023/02/11 08:12:22;;;;;;;18.25;8.93;;;;;;;-0.42;74.50;98018.66;4993654;28;20046;-73
2023/02/11 08:14:49;;;;;;;16.65;8.10;;;;;;;-0.33;74.09;98028.13;4994438;28;20054;-73
2023/02/11 08:17:15;;;;;;;15.63;7.75;;;;;;;-0.11;73.55;98029.53;4993705;28;20046;-73
2023/02/11 08:19:42;;;;;;;15.85;8.52;;;;;;;-0.03;73.06;98023.16;4994177;28;20074;-73
2023/02/11 08:22:09;;;;;;;17.85;8.70;;;;;;;-0.23;73.09;98030.41;4993465;28;20058;-73
2023/02/11 08:24:37;;;;;;;18.60;8.52;;;;;;;-0.31;73.03;98026.91;4994094;28;20053;-74
2023/02/11 08:27:03;;;;;;;15.93;8.57;;;;;;;-0.41;73.39;98025.69;4993468;28;20051;-73
2023/02/11 08:29:30;;;;;;;18.40;8.85;;;;;;;-0.43;73.76;98033.91;4993651;28;20494;-73
2023/02/11 08:31:56;;;;;;;16.08;8.57;;;;;;;-0.25;73.95;98035.97;4993926;28;20050;-73
2023/02/11 08:34:23;;;;;;;15.93;8.80;;;;;;;-0.03;73.63;98040.03;4993465;28;20046;-73
2023/02/11 08:36:49;;;;;;;16.20;8.75;;;;;;;-0.05;73.06;98036.75;4994061;28;20105;-73
2023/02/11 08:39:18;;;;;;;21.33;8.80;;;;;;;0.23;73.16;98036.47;4993551;28;20043;-74
2023/02/11 08:41:47;;;;;;;15.05;8.07;;;;;;;0.43;71.83;98038.28;4994055;28;20049;-74
2023/02/11 08:44:14;;;;;;;16.67;8.57;;;;;;;0.63;71.82;98039.00;4993663;28;20047;-73
2023/02/11 08:46:40;;;;;;;16.42;8.40;;;;;;;0.64;71.51;98046.03;4994359;28;20050;-73
2023/02/11 08:49:07;;;;;;;17.48;8.88;;;;;;;0.58;70.90;98030.78;4994258;28;20050;-73
2023/02/11 08:51:33;;;;;;;15.77;8.48;;;;;;;0.65;71.28;98036.13;4994865;28;20050;-74
2023/02/11 08:54:00;;;;;;;18.45;8.95;;;;;;;0.42;71.34;98025.91;4994010;28;20077;-73
2023/02/11 08:56:30;;;;;;;18.52;8.85;;;;;;;0.68;72.10;98020.44;4993422;28;20053;-75
2023/02/11 08:58:58;;;;;;;17.50;9.27;;;;;;;0.64;69.40;98013.84;4994145;28;20501;-74
2023/02/11 09:01:26;;;;;;;16.30;8.98;;;;;;;0.48;69.21;98004.44;4993574;28;20057;-73
2023/02/11 09:03:54;;;;;;;17.52;9.35;;;;;;;0.65;69.02;98004.75;4993931;28;20054;-73
2023/02/11 09:06:21;;;;;;;18.80;8.63;;;;;;;0.73;68.46;98001.00;4993286;28;20057;-73
2023/02/11 09:08:49;;;;;;;21.75;9.10;;;;;;;0.74;68.37;97997.31;4993011;28;20069;-73
2023/02/11 09:11:17;;;;;;;22.05;9.52;;;;;;;0.64;68.19;97987.03;4992745;28;20050;-73
2023/02/11 09:13:44;;;;;;;17.80;9.05;;;;;;;0.74;68.30;97984.72;4993221;28;20042;-73
2023/02/11 09:16:19;;;;;;;21.55;9.30;;;;;;;0.68;67.38;97985.56;4992265;28;20054;-73
2023/02/11 09:18:45;;;;;;;22.75;10.40;;;;;;;0.71;67.33;97982.44;4992987;28;20054;-74
2023/02/11 09:21:14;;;;;;;20.83;9.82;;;;;;;0.87;66.70;97996.38;4992087;28;20109;-73
2023/02/11 09:23:43;;;;;;;17.63;9.98;;;;;;;1.02;67.04;98007.66;4992961;28;20050;-74
2023/02/11 09:26:13;;;;;;;23.08;9.77;;;;;;;1.13;66.74;98017.69;4992321;28;20753;-73
2023/02/11 09:28:40;;;;;;;18.48;9.82;;;;;;;1.34;66.60;98003.06;4993205;28;20050;-73
2023/02/11 09:31:07;;;;;;;23.20;9.35;;;;;;;1.60;65.46;98006.59;4991708;28;20050;-72
2023/02/11 09:33:36;;;;;;;18.20;9.80;;;;;;;1.96;63.68;98003.16;4974494;28;20550;-78
2023/02/11 09:36:02;;;;;;;20.13;9.90;;;;;;;2.05;63.28;98017.94;4992680;28;20050;-75
2023/02/11 09:38:29;;;;;;;19.65;9.85;;;;;;;1.96;63.52;98027.31;4992884;28;20053;-74
2023/02/11 09:40:55;;;;;;;21.60;11.13;;;;;;;1.91;63.76;98011.03;4992893;28;20050;-74
2023/02/11 09:43:24;;;;;;;19.10;9.52;;;;;;;2.16;63.42;98001.06;4992175;28;20520;-78
2023/02/11 09:45:54;;;;;;;23.20;10.38;;;;;;;2.37;63.34;97993.59;4992594;28;20085;-73
2023/02/11 09:48:22;;;;;;;24.27;9.95;;;;;;;2.29;62.54;97995.53;4991890;28;20503;-72
2023/02/11 09:50:54;;;;;;;23.80;9.63;;;;;;;2.23;62.63;97993.75;4991949;28;20050;-72
2023/02/11 09:53:25;;;;;;;19.50;9.80;;;;;;;2.11;63.72;97998.22;4990980;28;20053;-72
2023/02/11 09:55:55;;;;;;;22.63;10.65;;;;;;;2.50;62.87;98005.00;4991694;28;20723;-72
2023/02/11 09:58:26;;;;;;;18.17;10.02;;;;;;;2.64;62.47;98002.97;4990943;28;20145;-72
2023/02/11 10:01:01;;;;;;;21.02;10.43;;;;;;;2.73;61.72;98007.00;4991603;28;20050;-72
2023/02/11 10:03:52;;;;;;;22.15;10.50;;;;;;;2.78;62.09;98011.69;4991353;28;20035;-72
2023/02/11 10:06:40;;;;;;;29.05;10.50;;;;;;;2.93;62.13;98005.91;4991115;28;20054;-72
2023/02/11 10:09:28;;;;;;;22.08;10.55;;;;;;;3.25;60.86;98006.47;4991655;28;20051;-72
2023/02/11 10:12:07;;;;;;;25.33;11.02;;;;;;;3.75;58.94;97998.78;4992101;28;20058;-72
2023/02/11 10:14:53;;;;;;;23.25;10.75;;;;;;;3.72;59.18;98007.38;4991949;28;20049;-73
2023/02/11 10:17:29;;;;;;;19.70;10.35;;;;;;;3.66;58.29;98009.13;4991602;28;20061;-72
2023/02/11 10:20:10;;;;;;;22.25;11.80;;;;;;;3.18;59.54;98009.25;4991657;28;20057;-73
2023/02/11 10:22:44;;;;;;;21.73;11.43;;;;;;;3.09;60.72;98018.72;4975770;28;20042;-73
2023/02/11 10:25:21;;;;;;;;;;;;;;;3.23;60.00;98012.06;4987513;28;20497;-71
2023/02/11 10:27:49;;;;;;;23.80;11.43;;;;;;;3.56;59.76;98000.78;4987853;28;19933;-71
2023/02/11 10:30:26;;;;;;;26.10;12.50;;;;;;;3.52;58.88;97990.72;4987827;28;20050;-71
2023/02/11 10:32:59;;;;;;;25.20;11.73;;;;;;;3.69;59.55;97999.75;4988130;28;20502;-71
2023/02/11 10:35:26;;;;;;;;;;;;;;;3.63;58.16;97985.31;4988371;28;20608;-71
2023/02/11 10:37:55;;;;;;;32.58;12.80;;;;;;;3.93;57.73;97982.53;4987988;28;19976;-72
2023/02/11 10:40:24;;;;;;;22.80;13.23;;;;;;;3.62;57.68;97978.31;4987664;28;20113;-72
2023/02/11 10:42:53;;;;;;;25.95;11.75;;;;;;;3.62;58.50;97977.50;4987836;28;20462;-71
2023/02/11 10:45:33;;;;;;;29.10;12.90;;;;;;;3.60;58.58;97974.19;4987435;28;20129;-73
2023/02/11 10:48:00;;;;;;;22.88;12.55;;;;;;;3.80;59.26;97963.88;4988105;28;20099;-72
2023/02/11 10:50:29;;;;;;;28.27;12.75;;;;;;;4.01;58.49;97975.13;4987359;28;20579;-72
2023/02/11 10:53:18;;;;;;;31.88;14.07;;;;;;;3.91;57.18;97965.78;4987538;28;20749;-72
2023/02/11 10:55:51;;;;;;;27.63;13.15;;;;;;;4.05;56.88;97960.13;4987482;28;20070;-72
2023/02/11 10:58:25;;;;;;;27.27;13.23;;;;;;;4.38;56.70;97957.56;4970002;28;20042;-72
2023/02/11 11:00:54;;;;;;;25.05;13.90;;;;;;;4.53;54.88;97956.25;4987229;28;20775;-72
2023/02/11 11:03:22;;;;;;;24.75;12.85;;;;;;;4.43;55.68;97957.69;4987065;28;20057;-72
2023/02/11 11:05:51;;;;;;;28.30;13.63;;;;;;;4.19;56.64;97956.13;4987441;28;20077;-72
2023/02/11 11:08:19;;;;;;;26.08;13.48;;;;;;;4.10;56.85;97954.84;4987288;28;20054;-72
2023/02/11 11:10:48;;;;;;;24.83;13.05;;;;;;;4.15;56.61;97954.94;4987493;28;20133;-72
2023/02/11 11:13:29;;;;;;;28.13;14.23;;;;;;;3.84;57.36;97954.28;4986914;28;20410;-71
2023/02/11 11:16:22;;;;;;;26.95;13.52;;;;;;;4.04;58.01;97955.78;4987476;28;20054;-72
2023/02/11 11:18:50;;;;;;;27.20;14.15;;;;;;;4.22;56.59;97955.63;4987292;28;20054;-72
2023/02/11 11:21:20;;;;;;;29.02;14.35;;;;;;;4.01;57.41;97961.66;4986529;28;20057;-73
2023/02/11 11:23:51;;;;;;;27.30;13.23;;;;;;;4.26;57.50;97956.81;4987018;28;20050;-72
2023/02/11 11:26:18;;;;;;;33.30;14.07;;;;;;;4.51;58.59;97952.97;4987765;28;20054;-72
2023/02/11 11:28:53;;;;;;;28.02;13.70;;;;;;;4.45;58.69;97952.88;4989209;28;20050;-73
2023/02/11 11:31:24;;;;;;;30.15;13.25;;;;;;;4.19;58.23;97956.13;4986830;28;20058;-72
2023/02/11 11:33:54;;;;;;;28.95;13.65;;;;;;;4.06;59.13;97961.75;4987524;28;20065;-72
2023/02/11 11:36:22;;;;;;;32.47;14.20;;;;;;;4.11;59.57;97967.25;4986953;28;20532;-73
2023/02/11 11:38:54;;;;;;;36.03;13.70;;;;;;;4.26;59.35;97970.28;4987492;28;20054;-73